createdAt,value
2018-07-21T00:00:27.720Z,4.9
2018-07-21T00:01:43.674Z,4.8
2018-07-21T00:03:00.566Z,4.8
2018-07-21T00:04:16.493Z,5.3
2018-07-21T00:05:32.356Z,4.8
2018-07-21T00:06:48.256Z,5.2
2018-07-21T00:08:04.222Z,5.1
2018-07-21T00:09:20.186Z,5.7
2018-07-21T00:10:36.056Z,4.8
2018-07-21T00:11:51.983Z,6.2
2018-07-21T00:13:07.901Z,5
2018-07-21T00:14:23.907Z,4.5
2018-07-21T00:15:39.802Z,4.7
2018-07-21T00:16:55.714Z,5.1
2018-07-21T00:18:11.643Z,4.8
2018-07-21T00:19:27.530Z,5.8
2018-07-21T00:20:43.421Z,5.1
2018-07-21T00:21:59.337Z,4.9
2018-07-21T00:23:15.300Z,5.3
2018-07-21T00:24:31.190Z,4.9
2018-07-21T00:25:47.113Z,4.9
2018-07-21T00:27:02.996Z,4.3
2018-07-21T00:28:18.926Z,4.9
2018-07-21T00:29:34.814Z,6.5
2018-07-21T00:30:50.768Z,5.5
2018-07-21T00:32:06.709Z,5.6
2018-07-21T00:33:22.613Z,5.3
2018-07-21T00:34:38.477Z,4.7
2018-07-21T00:35:54.359Z,4.6
2018-07-21T00:37:10.234Z,5.5
2018-07-21T00:38:26.128Z,6.2
2018-07-21T00:39:42.031Z,4.5
2018-07-21T00:40:57.930Z,5.8
2018-07-21T00:42:13.831Z,4.4
2018-07-21T00:43:29.737Z,4.8
2018-07-21T00:44:45.601Z,4.6
2018-07-21T00:46:01.517Z,5.1
2018-07-21T00:47:17.420Z,7.3
2018-07-21T00:48:33.344Z,5
2018-07-21T00:49:49.274Z,5.3
2018-07-21T00:51:05.187Z,5
2018-07-21T00:52:21.072Z,4.8
2018-07-21T00:53:36.972Z,5.1
2018-07-21T00:54:52.883Z,5.6
2018-07-21T00:56:08.772Z,4.3
2018-07-21T00:57:24.705Z,4.9
2018-07-21T00:58:40.613Z,5
2018-07-21T00:59:56.511Z,6.5
2018-07-21T01:01:12.601Z,5.8
2018-07-21T01:02:28.510Z,5.1
2018-07-21T01:03:44.431Z,5.2
2018-07-21T01:05:00.303Z,6.5
2018-07-21T01:06:16.252Z,4.8
2018-07-21T01:07:32.156Z,5
2018-07-21T01:08:48.030Z,5
2018-07-21T01:10:03.969Z,5.7
2018-07-21T01:11:19.899Z,5.2
2018-07-21T01:12:35.839Z,4.6
2018-07-21T01:13:51.768Z,4.8
2018-07-21T01:15:07.730Z,6
2018-07-21T01:16:23.670Z,6
2018-07-21T01:17:39.557Z,4.6
2018-07-21T01:18:55.458Z,5
2018-07-21T01:20:11.353Z,5
2018-07-21T01:21:27.297Z,5.4
2018-07-21T01:22:43.162Z,4.7
2018-07-21T01:23:59.040Z,5.5
2018-07-21T01:25:14.918Z,4.8
2018-07-21T01:26:30.850Z,5.9
2018-07-21T01:27:46.709Z,6.3
2018-07-21T01:29:02.595Z,5.8
2018-07-21T01:30:18.508Z,5
2018-07-21T01:31:34.443Z,4.9
2018-07-21T01:32:50.290Z,4.9
2018-07-21T01:34:06.172Z,5
2018-07-21T01:35:22.059Z,4.6
2018-07-21T01:36:38.140Z,4.5
2018-07-21T01:37:54.079Z,4.8
2018-07-21T01:39:09.959Z,4.9
2018-07-21T01:40:25.848Z,4.7
2018-07-21T01:41:41.746Z,4.7
2018-07-21T01:42:57.649Z,4.7
2018-07-21T01:44:13.506Z,4.9
2018-07-21T01:45:29.390Z,4.7
2018-07-21T01:46:45.260Z,4.8
2018-07-21T01:48:01.170Z,5.3
2018-07-21T01:49:17.023Z,5.2
2018-07-21T01:50:32.917Z,4.9
2018-07-21T01:51:48.800Z,5.1
2018-07-21T01:53:04.667Z,5
2018-07-21T01:54:20.554Z,4.8
2018-07-21T01:55:36.463Z,5.1
2018-07-21T01:56:52.372Z,5.4
2018-07-21T01:58:08.256Z,4.8
2018-07-21T01:59:24.190Z,5.3
2018-07-21T02:00:40.064Z,5.7
2018-07-21T02:01:55.937Z,5.9
2018-07-21T02:03:11.797Z,4.8
2018-07-21T02:04:27.668Z,4.9
2018-07-21T02:05:43.540Z,5.6
2018-07-21T02:06:59.407Z,5.1
2018-07-21T02:08:15.261Z,5.2
2018-07-21T02:09:31.173Z,5.8
2018-07-21T02:10:47.082Z,4.8
2018-07-21T02:12:02.997Z,4.8
2018-07-21T02:13:18.879Z,4.9
2018-07-21T02:14:34.785Z,4.8
2018-07-21T02:15:50.651Z,4.6
2018-07-21T02:17:07.586Z,5.9
2018-07-21T02:18:23.468Z,5.1
2018-07-21T02:19:39.394Z,4.7
2018-07-21T02:20:55.277Z,4.9
2018-07-21T02:22:11.195Z,5.1
2018-07-21T02:23:27.084Z,4.8
2018-07-21T02:24:43.050Z,5
2018-07-21T02:25:58.925Z,5.1
2018-07-21T02:27:14.798Z,5.1
2018-07-21T02:28:30.689Z,5.3
2018-07-21T02:29:46.546Z,5.1
2018-07-21T02:31:02.412Z,5.1
2018-07-21T02:32:18.316Z,6.1
2018-07-21T02:33:34.290Z,5.3
2018-07-21T02:34:50.222Z,4.9
2018-07-21T02:36:06.148Z,5.3
2018-07-21T02:37:22.036Z,7.3
2018-07-21T02:38:38.099Z,5.4
2018-07-21T02:39:54.075Z,5.4
2018-07-21T02:41:09.989Z,5.5
2018-07-21T02:42:25.954Z,5.2
2018-07-21T02:43:41.852Z,5.2
2018-07-21T02:44:57.785Z,5.2
2018-07-21T02:46:13.664Z,5.2
2018-07-21T02:47:29.577Z,5
2018-07-21T02:48:46.447Z,5.2
2018-07-21T02:50:02.343Z,4.7
2018-07-21T02:51:18.227Z,4.8
2018-07-21T02:52:34.090Z,4.8
2018-07-21T02:53:50.954Z,4.3
2018-07-21T02:55:06.854Z,5
2018-07-21T02:56:22.745Z,4.7
2018-07-21T02:57:38.616Z,5.4
2018-07-21T02:58:54.488Z,4.9
2018-07-21T03:00:10.412Z,4.5
2018-07-21T03:01:26.287Z,5
2018-07-21T03:02:42.147Z,5.1
2018-07-21T03:03:58.016Z,4.1
2018-07-21T03:05:13.932Z,4.2
2018-07-21T03:06:29.816Z,4.8
2018-07-21T03:07:46.684Z,4.2
2018-07-21T03:09:02.550Z,4.8
2018-07-21T03:10:18.465Z,3.9
2018-07-21T03:11:34.340Z,4.5
2018-07-21T03:12:50.231Z,4.2
2018-07-21T03:14:06.113Z,3.8
2018-07-21T03:15:22.023Z,3.8
2018-07-21T03:16:37.930Z,4.1
2018-07-21T03:17:53.802Z,3.9
2018-07-21T03:19:09.656Z,3.4
2018-07-21T03:20:25.522Z,4.1
2018-07-21T03:21:41.404Z,4.2
2018-07-21T03:22:57.245Z,5.8
2018-07-21T03:24:13.127Z,4.3
2018-07-21T03:25:29.038Z,4
2018-07-21T03:26:44.916Z,4
2018-07-21T03:28:00.864Z,4.4
2018-07-21T03:29:16.742Z,3.8
2018-07-21T03:30:32.595Z,4.2
2018-07-21T03:31:48.456Z,4.2
2018-07-21T03:33:04.332Z,3.8
2018-07-21T03:34:20.220Z,3.7
2018-07-21T03:35:36.113Z,4.1
2018-07-21T03:36:51.986Z,4.7
2018-07-21T03:38:07.877Z,3.3
2018-07-21T03:39:23.776Z,4.6
2018-07-21T03:40:39.674Z,4.1
2018-07-21T03:41:55.540Z,3.9
2018-07-21T03:43:11.421Z,4.3
2018-07-21T03:44:27.331Z,3.6
2018-07-21T03:45:43.233Z,3.8
2018-07-21T03:46:59.178Z,4.9
2018-07-21T03:48:15.061Z,3.6
2018-07-21T03:49:30.963Z,4.5
2018-07-21T03:50:46.837Z,3.6
2018-07-21T03:52:02.745Z,3.9
2018-07-21T03:53:18.618Z,3.8
2018-07-21T03:54:34.508Z,4
2018-07-21T03:55:50.490Z,4.7
2018-07-21T03:57:06.390Z,3.7
2018-07-21T03:58:22.310Z,4.7
2018-07-21T03:59:38.235Z,4.7
2018-07-21T04:00:54.123Z,3.7
2018-07-21T04:02:10.003Z,4.2
2018-07-21T04:03:25.894Z,4.3
2018-07-21T04:04:41.820Z,3.8
2018-07-21T04:05:57.718Z,3.9
2018-07-21T04:07:13.580Z,5.4
2018-07-21T04:08:29.497Z,4.2
2018-07-21T04:09:45.372Z,3.5
2018-07-21T04:11:01.274Z,5.2
2018-07-21T04:12:17.155Z,3.9
2018-07-21T04:13:33.047Z,4.2
2018-07-21T04:14:48.962Z,4.3
2018-07-21T04:16:04.822Z,4
2018-07-21T04:17:20.726Z,4.4
2018-07-21T04:18:36.640Z,4.6
2018-07-21T04:19:52.532Z,5.2
2018-07-21T04:21:08.395Z,5
2018-07-21T04:22:24.305Z,4.6
2018-07-21T04:23:40.231Z,4.6
2018-07-21T04:24:56.120Z,5
2018-07-21T04:26:11.975Z,3.9
2018-07-21T04:27:27.854Z,5.1
2018-07-21T04:28:43.770Z,5.1
2018-07-21T04:29:59.679Z,3.8
2018-07-21T04:31:15.522Z,3.9
2018-07-21T04:32:31.403Z,3.7
2018-07-21T04:33:47.283Z,5.1
2018-07-21T04:35:03.203Z,4.2
2018-07-21T04:36:20.058Z,4.5
2018-07-21T04:37:35.905Z,5.4
2018-07-21T04:38:51.774Z,3.8
2018-07-21T04:40:07.673Z,4.6
2018-07-21T04:41:23.584Z,4.1
2018-07-21T04:42:39.474Z,5
2018-07-21T04:43:55.358Z,4.6
2018-07-21T04:45:11.246Z,4.6
2018-07-21T04:46:27.150Z,4
2018-07-21T04:47:43.017Z,5
2018-07-21T04:48:58.897Z,6.1
2018-07-21T04:50:14.806Z,4.6
2018-07-21T04:51:30.732Z,5
2018-07-21T04:52:46.653Z,4.3
2018-07-21T04:54:02.632Z,5.2
2018-07-21T04:55:18.446Z,4.1
2018-07-21T04:56:34.368Z,3.5
2018-07-21T04:57:50.251Z,4.2
2018-07-21T04:59:06.121Z,5
2018-07-21T05:00:22.025Z,4.3
2018-07-21T05:01:37.930Z,5.1
2018-07-21T05:02:53.825Z,3.7
2018-07-21T05:04:09.742Z,3.8
2018-07-21T05:05:25.609Z,4.7
2018-07-21T05:06:41.532Z,4.3
2018-07-21T05:07:57.426Z,4.4
2018-07-21T05:09:13.281Z,4.4
2018-07-21T05:10:29.239Z,4.4
2018-07-21T05:11:45.156Z,4.2
2018-07-21T05:13:01.097Z,4.5
2018-07-21T05:14:16.997Z,4.4
2018-07-21T05:15:32.879Z,3.6
2018-07-21T05:16:48.815Z,5.1
2018-07-21T05:18:04.702Z,4.2
2018-07-21T05:19:20.593Z,3.7
2018-07-21T05:20:36.459Z,4.1
2018-07-21T05:21:52.382Z,4.7
2018-07-21T05:23:08.308Z,4.1
2018-07-21T05:24:24.175Z,4.6
2018-07-21T05:25:40.043Z,5
2018-07-21T05:26:55.919Z,3.8
2018-07-21T05:28:11.848Z,4
2018-07-21T05:29:28.857Z,4.3
2018-07-21T05:30:44.735Z,3.7
2018-07-21T05:32:00.629Z,4.1
2018-07-21T05:33:16.568Z,4
2018-07-21T05:34:32.453Z,3.9
2018-07-21T05:35:48.332Z,4.4
2018-07-21T05:37:04.331Z,3.8
2018-07-21T05:38:20.224Z,3.6
2018-07-21T05:39:36.088Z,4
2018-07-21T05:40:51.970Z,4.3
2018-07-21T05:42:07.841Z,3.8
2018-07-21T05:43:23.745Z,6.1
2018-07-21T05:44:39.620Z,4.4
2018-07-21T05:45:55.511Z,4.6
2018-07-21T05:47:11.381Z,3.6
2018-07-21T05:48:27.245Z,4
2018-07-21T05:49:43.093Z,3.8
2018-07-21T05:50:59.029Z,3.9
2018-07-21T05:52:14.908Z,4.5
2018-07-21T05:53:30.766Z,4.6
2018-07-21T05:54:46.646Z,4.1
2018-07-21T05:56:02.977Z,4.6
2018-07-21T05:57:18.882Z,4
2018-07-21T05:58:34.837Z,3.9
2018-07-21T05:59:50.835Z,5.8
2018-07-21T06:01:06.851Z,4.2
2018-07-21T06:02:22.779Z,5.2
2018-07-21T06:03:38.732Z,5.3
2018-07-21T06:04:54.640Z,4
2018-07-21T06:06:10.547Z,3.9
2018-07-21T06:07:26.476Z,5.6
2018-07-21T06:10:23.038Z,4.7
2018-07-21T06:11:38.992Z,4
2018-07-21T06:12:54.910Z,4.3
2018-07-21T06:14:10.818Z,5.3
2018-07-21T06:15:26.782Z,3.7
2018-07-21T06:16:42.673Z,3.9
2018-07-21T06:17:58.682Z,3.5
2018-07-21T06:19:14.574Z,5.3
2018-07-21T06:20:30.761Z,4.3
2018-07-21T06:21:46.784Z,5.2
2018-07-21T06:23:03.348Z,5.4
2018-07-21T06:24:19.275Z,3.9
2018-07-21T06:25:35.190Z,4.2
2018-07-21T06:26:51.122Z,4
2018-07-21T06:28:07.221Z,4.8
2018-07-21T06:29:24.078Z,4.5
2018-07-21T06:30:40.015Z,4.7
2018-07-21T06:31:56.233Z,4.3
2018-07-21T06:33:12.124Z,3.7
2018-07-21T06:34:28.078Z,4.5
2018-07-21T06:35:45.036Z,5.5
2018-07-21T06:37:01.016Z,3.7
2018-07-21T06:38:16.922Z,3.5
2018-07-21T06:39:32.836Z,6.6
2018-07-21T06:40:48.760Z,4.2
2018-07-21T06:42:04.710Z,2.9
2018-07-21T06:43:20.601Z,4.3
2018-07-21T06:44:36.517Z,4.1
2018-07-21T06:45:52.410Z,3.1
2018-07-21T06:47:08.398Z,4.7
2018-07-21T06:48:24.364Z,3.3
2018-07-21T06:49:40.294Z,3.1
2018-07-21T06:50:56.197Z,4.3
2018-07-21T06:52:12.136Z,2.8
2018-07-21T06:53:28.092Z,2.7
2018-07-21T06:54:44.021Z,2.6
2018-07-21T06:56:00.164Z,3.4
2018-07-21T06:57:16.097Z,2.7
2018-07-21T06:58:32.235Z,3.2
2018-07-21T06:59:48.185Z,2.3
2018-07-21T07:01:04.131Z,2.5
2018-07-21T07:02:21.097Z,2.6
2018-07-21T07:06:34.862Z,2.6
2018-07-21T07:07:50.768Z,2.5
2018-07-21T07:09:06.697Z,2.6
2018-07-21T07:10:22.572Z,2.4
2018-07-21T07:11:38.499Z,2.9
2018-07-21T07:12:54.411Z,5.3
2018-07-21T07:14:10.343Z,3.2
2018-07-21T07:15:26.264Z,2.9
2018-07-21T07:16:42.156Z,3.2
2018-07-21T07:17:58.083Z,3.5
2018-07-21T07:19:14.020Z,2.7
2018-07-21T07:20:29.967Z,3.5
2018-07-21T07:21:45.849Z,3.1
2018-07-21T07:23:01.755Z,3.7
2018-07-21T07:24:17.645Z,3.1
2018-07-21T07:25:33.550Z,3.1
2018-07-21T07:26:49.486Z,3.4
2018-07-21T07:28:05.379Z,3.2
2018-07-21T07:29:21.378Z,2.9
2018-07-21T07:30:37.236Z,5.5
2018-07-21T07:31:53.205Z,3.7
2018-07-21T07:33:09.146Z,4
2018-07-21T07:34:25.194Z,4.1
2018-07-21T07:35:41.049Z,3
2018-07-21T07:36:57.065Z,3.5
2018-07-21T07:38:12.985Z,3.2
2018-07-21T07:39:28.897Z,2.9
2018-07-21T07:40:44.796Z,3
2018-07-21T07:42:00.763Z,3.8
2018-07-21T07:43:16.627Z,3.1
2018-07-21T07:44:32.517Z,3.8
2018-07-21T07:45:48.422Z,3.1
2018-07-21T07:47:04.415Z,3.7
2018-07-21T07:48:20.354Z,2.7
2018-07-21T07:49:36.282Z,4.1
2018-07-21T07:50:52.268Z,3.8
2018-07-21T07:52:08.178Z,3.4
2018-07-21T07:53:25.380Z,4.1
2018-07-21T07:54:41.258Z,3.5
2018-07-21T07:55:57.227Z,3.3
2018-07-21T07:57:13.193Z,3.4
2018-07-21T07:58:29.103Z,5.4
2018-07-21T07:59:45.054Z,3.5
2018-07-21T08:01:00.965Z,5
2018-07-21T08:02:16.982Z,4.1
2018-07-21T08:03:32.927Z,5.8
2018-07-21T08:04:48.892Z,3.6
2018-07-21T08:06:04.839Z,4.4
2018-07-21T08:07:20.808Z,3.7
2018-07-21T08:08:36.767Z,3.8
2018-07-21T08:09:52.700Z,3.2
2018-07-21T08:11:08.720Z,3.3
2018-07-21T08:12:24.702Z,3.2
2018-07-21T08:13:40.651Z,4.9
2018-07-21T08:14:56.607Z,3.3
2018-07-21T08:16:12.565Z,3.7
2018-07-21T08:17:28.505Z,3.1
2018-07-21T08:18:44.481Z,5.1
2018-07-21T08:21:40.964Z,3.4
2018-07-21T08:24:37.624Z,3.2
2018-07-21T08:27:34.445Z,3
2018-07-21T08:28:50.375Z,4.4
2018-07-21T08:30:24.276Z,3.4
2018-07-21T08:31:40.231Z,3.8
2018-07-21T08:37:58.667Z,4.6
2018-07-21T08:42:36.042Z,4.5
2018-07-21T08:43:52.020Z,5.6
2018-07-21T08:46:48.497Z,7
2018-07-21T08:48:04.517Z,5.4
2018-07-21T08:49:20.460Z,3.2
2018-07-21T08:50:37.449Z,3.4
2018-07-21T08:51:53.407Z,3.9
2018-07-21T08:53:09.375Z,4.6
2018-07-21T08:54:25.312Z,3.2
2018-07-21T08:55:41.228Z,3.8
2018-07-21T08:56:57.224Z,3.6
2018-07-21T08:58:13.925Z,4.1
2018-07-21T08:59:29.881Z,3.8
2018-07-21T09:00:45.830Z,3.4
2018-07-21T09:02:01.807Z,4.3
2018-07-21T09:03:18.793Z,3.7
2018-07-21T09:04:34.803Z,3.6
2018-07-21T09:05:50.886Z,4
2018-07-21T09:07:06.754Z,3.4
2018-07-21T09:08:22.805Z,4.4
2018-07-21T09:09:38.759Z,3.6
2018-07-21T09:10:54.714Z,4.2
2018-07-21T09:12:10.678Z,4.6
2018-07-21T09:13:26.681Z,3.6
2018-07-21T09:14:42.672Z,3.7
2018-07-21T09:15:58.653Z,3.8
2018-07-21T09:17:14.611Z,4.3
2018-07-21T09:18:30.659Z,4.6
2018-07-21T09:19:46.627Z,3.6
2018-07-21T09:21:02.580Z,3.1
2018-07-21T09:22:18.560Z,3.5
2018-07-21T09:23:34.534Z,4
2018-07-21T09:24:50.501Z,3.6
2018-07-21T09:26:06.552Z,5.3
2018-07-21T09:27:22.564Z,4.3
2018-07-21T09:28:38.548Z,4.6
2018-07-21T09:29:54.523Z,3.4
2018-07-21T09:31:10.465Z,4.3
2018-07-21T09:32:26.450Z,4.5
2018-07-21T09:33:42.380Z,4.7
2018-07-21T09:34:58.313Z,5.8
2018-07-21T09:36:14.263Z,5.2
2018-07-21T09:37:30.171Z,3.7
2018-07-21T09:38:46.125Z,4.1
2018-07-21T09:40:02.125Z,4.6
2018-07-21T09:41:18.012Z,4.1
2018-07-21T09:42:33.992Z,3.9
2018-07-21T09:43:49.928Z,4.5
2018-07-21T09:45:05.863Z,6.1
2018-07-21T09:46:21.802Z,4.5
2018-07-21T09:47:37.711Z,4.5
2018-07-21T09:48:53.704Z,5.8
2018-07-21T09:50:09.554Z,3.9
2018-07-21T09:51:25.525Z,5.1
2018-07-21T09:52:41.463Z,3.9
2018-07-21T09:53:57.435Z,4.9
2018-07-21T09:55:13.412Z,4.6
2018-07-21T09:56:29.359Z,3.6
2018-07-21T09:57:45.338Z,4.1
2018-07-21T09:59:01.285Z,4.6
2018-07-21T10:00:17.216Z,4.7
2018-07-21T10:01:33.169Z,4.9
2018-07-21T10:02:49.139Z,3.7
2018-07-21T10:04:05.095Z,3.7
2018-07-21T10:05:20.987Z,4.8
2018-07-21T10:06:36.918Z,3.6
2018-07-21T10:07:52.857Z,3.7
2018-07-21T10:09:08.882Z,3.7
2018-07-21T10:10:24.756Z,3.6
2018-07-21T10:11:40.691Z,5.6
2018-07-21T10:12:56.659Z,3.7
2018-07-21T10:14:12.570Z,4
2018-07-21T10:15:28.551Z,5.3
2018-07-21T10:16:44.427Z,3.7
2018-07-21T10:18:00.344Z,3.9
2018-07-21T10:19:16.264Z,3.8
2018-07-21T10:20:32.400Z,6.4
2018-07-21T10:21:48.379Z,3.6
2018-07-21T10:23:04.772Z,3.7
2018-07-21T10:24:20.721Z,5.7
2018-07-21T10:25:36.682Z,4.9
2018-07-21T10:26:52.645Z,4.2
2018-07-21T10:28:08.694Z,3.8
2018-07-21T10:29:24.565Z,3.9
2018-07-21T10:30:40.552Z,3.5
2018-07-21T10:31:56.558Z,4
2018-07-21T10:33:12.558Z,4.1
2018-07-21T10:34:28.457Z,4.9
2018-07-21T10:35:44.350Z,4.3
2018-07-21T10:37:00.268Z,4.2
2018-07-21T10:38:16.211Z,3.4
2018-07-21T10:39:32.149Z,4
2018-07-21T10:40:48.094Z,4.6
2018-07-21T10:42:04.057Z,4.2
2018-07-21T10:43:20.033Z,4.6
2018-07-21T10:44:36.088Z,4.8
2018-07-21T10:45:52.014Z,4.1
2018-07-21T10:50:06.081Z,4.3
2018-07-21T10:51:22.074Z,4.3
2018-07-21T10:52:38.037Z,3.9
2018-07-21T10:53:53.933Z,3.9
2018-07-21T10:55:09.861Z,4.1
2018-07-21T10:56:25.891Z,3.8
2018-07-21T10:57:41.788Z,3.9
2018-07-21T10:58:57.708Z,5.1
2018-07-21T11:00:13.674Z,4.2
2018-07-21T11:01:29.610Z,5
2018-07-21T11:02:45.550Z,4
2018-07-21T11:04:01.513Z,4.5
2018-07-21T11:05:17.544Z,4.1
2018-07-21T11:06:33.872Z,3.9
2018-07-21T11:07:49.901Z,3.8
2018-07-21T11:09:05.875Z,4.4
2018-07-21T11:10:21.889Z,4.8
2018-07-21T11:11:37.859Z,3.5
2018-07-21T11:12:53.802Z,5.1
2018-07-21T11:14:09.770Z,4
2018-07-21T11:15:25.718Z,3.4
2018-07-21T11:16:41.592Z,3.3
2018-07-21T11:17:57.587Z,3.7
2018-07-21T11:19:13.535Z,3.3
2018-07-21T11:20:29.499Z,3.2
2018-07-21T11:21:45.433Z,3.4
2018-07-21T11:23:01.412Z,3.5
2018-07-21T11:24:17.330Z,3.5
2018-07-21T11:25:33.262Z,3.2
2018-07-21T11:26:49.318Z,3.7
2018-07-21T11:28:05.251Z,3.8
2018-07-21T11:29:21.260Z,3.2
2018-07-21T11:30:37.190Z,3.4
2018-07-21T11:31:53.246Z,3.4
2018-07-21T11:33:09.228Z,3.3
2018-07-21T11:34:25.206Z,4.6
2018-07-21T11:35:41.326Z,4
2018-07-21T11:36:57.634Z,3.7
2018-07-21T11:38:14.049Z,3.8
2018-07-21T11:39:30.020Z,3.7
2018-07-21T11:40:45.913Z,3.9
2018-07-21T11:42:01.851Z,3.2
2018-07-21T11:43:17.820Z,3.1
2018-07-21T11:44:33.855Z,4.4
2018-07-21T11:45:49.733Z,4.6
2018-07-21T11:47:05.653Z,3.4
2018-07-21T11:50:02.146Z,3.5
2018-07-21T11:51:18.120Z,3.9
2018-07-21T11:52:34.069Z,3.9
2018-07-21T11:53:50.076Z,5.3
2018-07-21T11:55:06.026Z,3.7
2018-07-21T11:56:21.983Z,3.6
2018-07-21T11:57:37.892Z,3.9
2018-07-21T11:58:53.872Z,3.8
2018-07-21T12:00:09.783Z,3.4
2018-07-21T12:01:25.753Z,3.5
2018-07-21T12:02:41.665Z,3.6
2018-07-21T12:03:57.628Z,3.7
2018-07-21T12:05:13.608Z,3.5
2018-07-21T12:06:29.538Z,3.7
2018-07-21T12:07:45.444Z,4
2018-07-21T12:09:01.411Z,4.6
2018-07-21T12:10:17.332Z,3.8
2018-07-21T12:11:33.296Z,3.4
2018-07-21T12:12:49.209Z,4.9
2018-07-21T12:14:05.197Z,3.9
2018-07-21T12:15:21.089Z,4.4
2018-07-21T12:16:37.051Z,4.1
2018-07-21T12:17:53.021Z,4.5
2018-07-21T12:19:08.951Z,5.2
2018-07-21T12:20:24.917Z,3.7
2018-07-21T12:21:40.814Z,5.2
2018-07-21T12:22:56.734Z,3.2
2018-07-21T12:24:12.684Z,4.6
2018-07-21T12:25:28.609Z,3.5
2018-07-21T12:26:44.579Z,3.6
2018-07-21T12:28:00.494Z,3.6
2018-07-21T12:29:16.370Z,3.7
2018-07-21T12:30:32.338Z,4
2018-07-21T12:31:48.294Z,4
2018-07-21T12:33:04.224Z,4.1
2018-07-21T12:34:20.294Z,3.6
2018-07-21T12:35:36.204Z,3.6
2018-07-21T12:36:52.115Z,4
2018-07-21T12:38:08.062Z,3.8
2018-07-21T12:39:24.024Z,4.4
2018-07-21T12:40:39.980Z,4
2018-07-21T12:41:56.015Z,4.3
2018-07-21T12:43:11.961Z,3.9
2018-07-21T12:44:27.889Z,5
2018-07-21T12:45:43.803Z,3.5
2018-07-21T12:46:59.699Z,4.5
2018-07-21T12:48:15.607Z,3.8
2018-07-21T12:51:12.164Z,5.3
2018-07-21T12:52:28.007Z,4.1
2018-07-21T12:53:43.971Z,4.1
2018-07-21T12:54:59.934Z,4.2
2018-07-21T12:56:15.805Z,4.2
2018-07-21T12:57:31.746Z,4.1
2018-07-21T12:58:47.645Z,5.3
2018-07-21T13:00:03.642Z,3.8
2018-07-21T13:01:19.568Z,4.5
2018-07-21T13:02:35.501Z,4.3
2018-07-21T13:03:51.496Z,3.8
2018-07-21T13:05:07.531Z,4.4
2018-07-21T13:06:23.486Z,5.9
2018-07-21T13:07:39.487Z,4
2018-07-21T13:08:55.466Z,4.2
2018-07-21T13:10:11.507Z,4.1
2018-07-21T13:11:27.491Z,4
2018-07-21T13:12:43.428Z,4.8
2018-07-21T13:13:59.343Z,4
2018-07-21T13:15:15.323Z,4
2018-07-21T13:16:31.239Z,5
2018-07-21T13:17:47.292Z,5
2018-07-21T13:19:03.184Z,4.2
2018-07-21T13:20:19.161Z,5
2018-07-21T13:21:35.101Z,4.9
2018-07-21T13:22:51.068Z,3.6
2018-07-21T13:24:07.021Z,3
2018-07-21T13:25:23.973Z,3
2018-07-21T13:26:41.242Z,2.9
2018-07-21T13:27:57.175Z,4.5
2018-07-21T13:29:13.090Z,2.8
2018-07-21T13:30:29.012Z,4.2
2018-07-21T13:31:45.440Z,2.7
2018-07-21T13:33:01.344Z,3.3
2018-07-21T13:34:17.237Z,2.5
2018-07-21T13:35:33.228Z,2.7
2018-07-21T13:36:49.165Z,2.1
2018-07-21T13:38:05.096Z,2.9
2018-07-21T13:39:21.060Z,2.4
2018-07-21T13:40:37.005Z,2.8
2018-07-21T13:41:53.009Z,2.8
2018-07-21T13:43:08.953Z,2.2
2018-07-21T13:44:25.061Z,2.4
2018-07-21T13:45:40.945Z,2.6
2018-07-21T13:46:56.883Z,2.3
2018-07-21T13:48:12.840Z,2.4
2018-07-21T13:49:28.810Z,2.6
2018-07-21T13:50:44.685Z,2
2018-07-21T13:52:00.659Z,3.4
2018-07-21T13:53:16.591Z,2.1
2018-07-21T13:54:32.525Z,2.4
2018-07-21T13:55:48.487Z,2.8
2018-07-21T13:57:04.492Z,2
2018-07-21T13:58:20.421Z,2.7
2018-07-21T13:59:36.346Z,2.8
2018-07-21T14:00:52.286Z,2
2018-07-21T14:02:08.297Z,2.2
2018-07-21T14:03:24.188Z,2.1
2018-07-21T14:04:40.080Z,3
2018-07-21T14:05:56.014Z,4.9
2018-07-21T14:07:11.934Z,3.7
2018-07-21T14:08:27.978Z,2.5
2018-07-21T14:09:43.912Z,2.7
2018-07-21T14:10:59.847Z,2.2
2018-07-21T14:12:15.789Z,2.1
2018-07-21T14:13:31.773Z,5.4
2018-07-21T14:14:47.773Z,2.1
2018-07-21T14:16:03.708Z,2.6
2018-07-21T14:17:19.673Z,2.2
2018-07-21T14:18:35.659Z,2.2
2018-07-21T14:19:51.742Z,2.7
2018-07-21T14:21:07.681Z,2
2018-07-21T14:22:23.647Z,1.8
2018-07-21T14:23:39.658Z,3.3
2018-07-21T14:24:55.636Z,2.1
2018-07-21T14:26:11.570Z,2.1
2018-07-21T14:27:27.515Z,2
2018-07-21T14:28:43.531Z,2.1
2018-07-21T14:29:59.674Z,3.9
2018-07-21T14:31:15.420Z,2.2
2018-07-21T14:32:31.389Z,2.6
2018-07-21T14:33:47.430Z,5.5
2018-07-21T14:35:03.425Z,2.3
2018-07-21T14:36:19.475Z,2
2018-07-21T14:37:35.298Z,2.8
2018-07-21T14:38:51.250Z,2.6
2018-07-21T14:40:07.179Z,3
2018-07-21T14:41:23.167Z,2
2018-07-21T14:42:39.055Z,2.2
2018-07-21T14:43:54.984Z,3.2
2018-07-21T14:45:10.968Z,4.2
2018-07-21T14:46:26.912Z,2.5
2018-07-21T14:47:42.857Z,4.1
2018-07-21T14:48:58.794Z,2.3
2018-07-21T14:50:14.714Z,2.8
2018-07-21T14:51:30.606Z,2.4
2018-07-21T14:52:47.516Z,2.4
2018-07-21T14:54:03.518Z,2.4
2018-07-21T14:55:19.562Z,2.6
2018-07-21T14:56:35.472Z,1.9
2018-07-21T14:57:51.389Z,2.3
2018-07-21T14:59:07.407Z,2.3
2018-07-21T15:00:23.509Z,2.8
2018-07-21T15:01:39.463Z,3.3
2018-07-21T15:02:55.364Z,3.9
2018-07-21T15:04:11.312Z,3.4
2018-07-21T15:05:27.311Z,2.3
2018-07-21T15:06:43.680Z,2.6
2018-07-21T15:07:59.989Z,2.1
2018-07-21T15:09:15.967Z,3
2018-07-21T15:10:31.922Z,2
2018-07-21T15:11:47.906Z,2.7
2018-07-21T15:13:03.836Z,3
2018-07-21T15:14:19.836Z,2.6
2018-07-21T15:15:35.813Z,3
2018-07-21T15:16:51.712Z,1.9
2018-07-21T15:18:07.672Z,3.1
2018-07-21T15:19:23.616Z,1.6
2018-07-21T15:20:39.589Z,1.6
2018-07-21T15:21:55.918Z,1.3
2018-07-21T15:23:11.906Z,1.3
2018-07-21T15:24:27.881Z,2.2
2018-07-21T15:25:43.864Z,1.5
2018-07-21T15:26:59.848Z,2.7
2018-07-21T15:28:15.836Z,1.9
2018-07-21T15:29:31.858Z,1.2
2018-07-21T15:30:47.707Z,1.2
2018-07-21T15:32:03.639Z,1.3
2018-07-21T15:33:19.619Z,2.5
2018-07-21T15:34:35.520Z,1.9
2018-07-21T15:35:51.637Z,1.9
2018-07-21T15:37:07.937Z,1.7
2018-07-21T15:38:23.896Z,3.6
2018-07-21T15:39:39.969Z,1.6
2018-07-21T15:40:55.860Z,1.9
2018-07-21T15:42:11.870Z,1.8
2018-07-21T15:43:27.869Z,2.4
2018-07-21T15:44:43.866Z,2.3
2018-07-21T15:45:59.789Z,2.5
2018-07-21T15:47:15.714Z,2.9
2018-07-21T15:48:31.624Z,2.5
2018-07-21T15:49:47.598Z,2.1
2018-07-21T15:51:03.535Z,2
2018-07-21T15:52:19.497Z,2.5
2018-07-21T15:53:35.481Z,2.2
2018-07-21T15:54:51.481Z,1.9
2018-07-21T15:56:07.402Z,2.5
2018-07-21T15:57:23.436Z,2.1
2018-07-21T15:58:39.445Z,2.1
2018-07-21T15:59:55.369Z,2
2018-07-21T16:01:11.315Z,2.7
2018-07-21T16:02:27.388Z,2.1
2018-07-21T16:03:43.357Z,4.3
2018-07-21T16:04:59.283Z,2.1
2018-07-21T16:06:15.210Z,2.1
2018-07-21T16:07:31.136Z,2.7
2018-07-21T16:10:27.633Z,3.7
2018-07-21T16:11:43.631Z,2.6
2018-07-21T16:12:59.619Z,2.5
2018-07-21T16:14:15.547Z,3.5
2018-07-21T16:15:31.509Z,2
2018-07-21T16:16:47.499Z,4.1
2018-07-21T16:18:03.415Z,2.1
2018-07-21T16:19:19.368Z,2.6
2018-07-21T16:20:35.294Z,3.4
2018-07-21T16:21:51.203Z,2.1
2018-07-21T16:23:07.159Z,3.3
2018-07-21T16:24:23.145Z,3.3
2018-07-21T16:25:39.178Z,4.2
2018-07-21T16:26:55.151Z,3.4
2018-07-21T16:28:11.167Z,3.1
2018-07-21T16:29:27.125Z,2.3
2018-07-21T16:30:43.155Z,2.5
2018-07-21T16:31:59.153Z,3
2018-07-21T16:33:15.152Z,2.6
2018-07-21T16:34:31.174Z,2.9
2018-07-21T16:35:47.160Z,2.5
2018-07-21T16:37:03.176Z,2.7
2018-07-21T16:38:19.100Z,2.8
2018-07-21T16:39:35.056Z,2.3
2018-07-21T16:40:51.031Z,3.4
2018-07-21T16:42:07.068Z,4.2
2018-07-21T16:43:23.034Z,2.8
2018-07-21T16:44:39.168Z,2.3
2018-07-21T16:45:55.176Z,2.4
2018-07-21T16:47:11.158Z,2.5
2018-07-21T16:48:27.959Z,1.9
2018-07-21T16:49:44.024Z,2.1
2018-07-21T16:50:59.977Z,2.5
2018-07-21T16:52:14.922Z,2.3
2018-07-21T16:53:30.889Z,2.4
2018-07-21T16:54:46.927Z,2.2
2018-07-21T16:56:02.921Z,4.7
2018-07-21T16:57:18.890Z,2.4
2018-07-21T16:58:34.925Z,2
2018-07-21T16:59:50.914Z,2.1
2018-07-21T17:01:06.912Z,3.4
2018-07-21T17:02:22.881Z,2.2
2018-07-21T17:03:38.854Z,2.5
2018-07-21T17:04:54.894Z,2.4
2018-07-21T17:06:10.878Z,2.4
2018-07-21T17:07:26.897Z,2.9
2018-07-21T17:08:42.930Z,2.6
2018-07-21T17:09:59.063Z,2.8
2018-07-21T17:11:15.069Z,3.5
2018-07-21T17:12:31.015Z,2.3
2018-07-21T17:13:47.025Z,2.9
2018-07-21T17:15:02.988Z,2.7
2018-07-21T17:16:18.977Z,3
2018-07-21T17:17:34.980Z,3.1
2018-07-21T17:18:50.933Z,3.5
2018-07-21T17:20:07.158Z,2.6
2018-07-21T17:21:23.385Z,3.2
2018-07-21T17:22:39.453Z,3.6
2018-07-21T17:23:55.543Z,3.3
2018-07-21T17:25:11.581Z,3.2
2018-07-21T17:26:27.513Z,3.6
2018-07-21T17:27:43.471Z,3
2018-07-21T17:28:59.395Z,2.7
2018-07-21T17:30:15.402Z,2.9
2018-07-21T17:31:31.374Z,4.3
2018-07-21T17:32:47.350Z,3.1
2018-07-21T17:34:03.373Z,2.9
2018-07-21T17:35:20.397Z,3.2
2018-07-21T17:36:36.378Z,2.9
2018-07-21T17:37:52.388Z,3.8
2018-07-21T17:39:08.476Z,2.4
2018-07-21T17:40:24.391Z,3.7
2018-07-21T17:41:40.470Z,3.3
2018-07-21T17:42:56.433Z,3
2018-07-21T17:44:13.306Z,3.7
2018-07-21T17:45:30.477Z,2.4
2018-07-21T17:46:46.465Z,4.9
2018-07-21T17:48:02.467Z,2.3
2018-07-21T17:49:18.394Z,2.5
2018-07-21T17:50:34.347Z,2.2
2018-07-21T17:51:50.379Z,3.1
2018-07-21T17:53:06.335Z,2.5
2018-07-21T17:54:22.288Z,4.5
2018-07-21T17:55:38.234Z,2.3
2018-07-21T17:56:54.254Z,3
2018-07-21T17:58:10.357Z,2.7
2018-07-21T17:59:26.202Z,2.9
2018-07-21T18:00:42.176Z,2.4
2018-07-21T18:01:58.162Z,2.1